Terminal Aerodrome Forecast
Issued by NWS Sioux Falls, SD

Home | Current Version | Previous Version | Graphics & Text | Print | Product List | Glossary Off
Versions: 1 2 3 4 5 6 7 8 9 10 11 12 13

000
FTUS43 KFSD 160549
TAFFSD
TAF
KFSD 160549Z 1606/1706 14007KT P6SM BKN035
     FM160800 VRB04KT P6SM OVC020
     FM161500 VRB03KT P6SM SCT035
     FM162200 02006KT P6SM SCT035 BKN120=

USA.gov is the U.S. government's official web portal to all federal, state and local government web resources and services.